Time;durP1;ratioP1;P1;durP2;ratioP2;P2;SDS_P1;SDS_P2;PMS_P1;PMS_P2;Temp;Humidity;BMP_temperature;BMP_pressure;BME280_temperature;BME280_humidity;BME280_pressure;Samples;Min_cycle;Max_cycle;Signal;HPM_P1;HPM_P2
2023/05/02 00:01:28;;;;;;;;;;;;;;;15.20;100.00;97887.88;5070784;28;19960;-71
2023/05/02 00:03:55;;;;;;;;;;;;;;;15.20;100.00;97895.94;5086388;28;19937;-71
2023/05/02 00:06:21;;;;;;;;;;;;;;;15.20;100.00;97887.88;5075979;28;20036;-72
2023/05/02 00:08:48;;;;;;;;;;;;;;;15.09;100.00;97896.13;5075031;28;19935;-71
2023/05/02 00:11:15;;;;;;;;;;;;;;;15.10;100.00;97895.00;5076499;28;20466;-71
2023/05/02 00:13:43;;;;;;;;;;;;;;;15.07;100.00;97900.97;5078428;28;19932;-72
2023/05/02 00:16:10;;;;;;;;;;;;;;;15.04;100.00;97898.84;5078552;28;20060;-72
2023/05/02 00:18:36;;;;;;;;;;;;;;;15.02;100.00;97895.66;5078412;28;19933;-72
2023/05/02 00:21:02;;;;;;;;;;;;;;;14.99;100.00;97898.13;5078650;28;19925;-72
2023/05/02 00:23:29;;;;;;;;;;;;;;;14.97;100.00;97895.75;5071761;28;19925;-70
2023/05/02 00:25:55;;;;;;;;;;;;;;;14.95;100.00;97897.91;5086318;28;19963;-71
2023/05/02 00:28:21;;;;;;;;;;;;;;;14.98;100.00;97897.34;5076011;28;19935;-71
2023/05/02 00:30:49;;;;;;;;;;;;;;;15.01;100.00;97896.75;5074379;28;20432;-70
2023/05/02 00:33:15;;;;;;;;;;;;;;;15.00;100.00;97900.56;5076441;28;19943;-71
2023/05/02 00:35:42;;;;;;;;;;;;;;;15.00;100.00;97900.56;5077917;28;19928;-71
2023/05/02 00:38:09;;;;;;;;;;;;;;;14.93;100.00;97900.09;5071933;28;19987;-72
2023/05/02 00:40:45;;;;;;;;;;;;;;;15.00;100.00;97895.19;5085112;28;19991;-71
2023/05/02 00:43:12;;;;;;;;;;;;;;;14.38;100.00;97898.16;5079188;28;19998;-69
2023/05/02 00:45:39;;;;;;;;;;;;;;;14.16;100.00;97897.84;5077774;28;19932;-71
2023/05/02 00:48:08;;;;;;;;;;;;;;;14.14;100.00;97903.53;5077641;28;19924;-71
2023/05/02 00:50:36;;;;;;;;;;;;;;;14.46;100.00;97897.50;5077635;28;19932;-70
2023/05/02 00:53:03;;;;;;;;;;;;;;;14.63;100.00;97902.41;5079207;28;19959;-71
2023/05/02 00:55:29;;;;;;;;;;;;;;;14.75;100.00;97900.09;5074616;28;19943;-71
2023/05/02 00:57:56;;;;;;;;;;;;;;;14.83;100.00;97913.69;5077709;28;20686;-71
2023/05/02 01:00:27;;;;;;;;;;;;;;;14.80;100.00;97908.09;5077609;28;19960;-71
2023/05/02 01:02:58;;;;;;;;;;;;;;;14.75;100.00;97910.84;5079878;28;19928;-71
2023/05/02 01:05:28;;;;;;;;;;;;;;;14.72;100.00;97909.56;5075483;28;19971;-71
2023/05/02 01:08:01;;;;;;;;;;;;;;;14.69;100.00;97920.88;5076674;28;19921;-71
2023/05/02 01:10:31;;;;;;;;;;;;;;;14.63;100.00;97911.28;5077329;28;19971;-71
2023/05/02 01:12:59;;;;;;;;;;;;;;;14.62;100.00;97919.63;5077391;28;19975;-71
2023/05/02 01:15:26;;;;;;;;;;;;;;;14.61;100.00;97913.44;5076095;28;19932;-71
2023/05/02 01:17:55;;;;;;;;;;;;;;;14.62;100.00;97920.44;5073857;28;19936;-71
2023/05/02 01:20:23;;;;;;;;;;;;;;;14.54;100.00;97921.84;5074528;28;19995;-71
2023/05/02 01:22:51;;;;;;;;;;;;;;;14.50;100.00;97928.09;5078360;28;19921;-71
2023/05/02 01:25:23;;;;;;;;;;;;;;;14.51;100.00;97929.72;5084262;28;19924;-71
2023/05/02 01:27:54;;;;;;;;;;;;;;;14.50;100.00;97933.47;5073210;28;20019;-71
2023/05/02 01:30:23;;;;;;;;;;;;;;;14.51;100.00;97924.34;5078168;28;19992;-71
2023/05/02 01:32:51;;;;;;;;;;;;;;;14.44;100.00;97930.06;5077871;28;19971;-71
2023/05/02 01:35:18;;;;;;;;;;;;;;;14.45;100.00;97928.19;5077603;28;19921;-71
2023/05/02 01:37:45;;;;;;;;;;;;;;;14.45;100.00;97930.88;5072865;28;19932;-70
2023/05/02 01:40:13;;;;;;;;;;;;;;;14.44;100.00;97929.25;5081303;28;20324;-70
2023/05/02 01:42:41;;;;;;;;;;;;;;;14.40;100.00;97938.97;5073184;28;19988;-70
2023/05/02 01:45:08;;;;;;;;;;;;;;;14.38;100.00;97941.97;5076097;28;19932;-70
2023/05/02 01:47:37;;;;;;;;;;;;;;;14.37;100.00;97939.53;5078322;28;19925;-70
2023/05/02 01:50:05;;;;;;;;;;;;;;;14.31;100.00;97940.66;5073702;28;20019;-70
2023/05/02 01:52:32;;;;;;;;;;;;;;;14.28;100.00;97938.53;5081529;28;19955;-70
2023/05/02 01:54:59;;;;;;;;;;;;;;;14.24;100.00;97934.81;5078476;28;19936;-70
2023/05/02 01:57:27;;;;;;;;;;;;;;;14.20;100.00;97939.97;5077741;28;20016;-70
2023/05/02 01:59:55;;;;;;;;;;;;;;;14.26;100.00;97948.78;5080156;28;19936;-70
2023/05/02 02:02:22;;;;;;;;;;;;;;;14.29;100.00;97950.91;5081125;28;19927;-70
2023/05/02 02:04:51;;;;;;;;;;;;;;;14.34;100.00;97945.47;5079445;28;20046;-70
2023/05/02 02:07:18;;;;;;;;;;;;;;;14.29;100.00;97942.84;5069302;28;19925;-70
2023/05/02 02:09:44;;;;;;;;;;;;;;;14.24;100.00;97961.69;5078514;28;19964;-72
2023/05/02 02:12:12;;;;;;;;;;;;;;;14.19;100.00;97959.06;5080984;28;20425;-69
2023/05/02 02:14:39;;;;;;;;;;;;;;;14.17;100.00;97962.03;5080743;28;20560;-70
2023/05/02 02:17:11;;;;;;;;;;;;;;;14.17;100.00;97963.91;5077595;28;19988;-70
2023/05/02 02:19:39;;;;;;;;;;;;;;;14.18;100.00;97960.13;5077106;28;19927;-71
2023/05/02 02:22:07;;;;;;;;;;;;;;;14.24;100.00;97957.09;5080790;28;19924;-71
2023/05/02 02:24:35;;;;;;;;;;;;;;;14.20;100.00;97958.78;5081104;28;20006;-70
2023/05/02 02:27:01;;;;;;;;;;;;;;;14.20;100.00;97966.03;5077634;28;19992;-70
2023/05/02 02:29:28;;;;;;;;;;;;;;;14.20;100.00;97966.03;5076172;28;19988;-70
2023/05/02 02:31:54;;;;;;;;;;;;;;;14.22;100.00;97966.53;5079843;28;19935;-70
2023/05/02 02:34:21;;;;;;;;;;;;;;;14.17;100.00;97958.56;5081042;28;20448;-70
2023/05/02 02:36:52;;;;;;;;;;;;;;;14.04;100.00;97973.44;5071118;28;19935;-70
2023/05/02 02:39:27;;;;;;;;;;;;;;;14.00;100.00;97969.72;5077406;28;19925;-70
2023/05/02 02:41:59;;;;;;;;;;;;;;;13.92;100.00;97976.50;5079511;28;19925;-70
2023/05/02 02:44:28;;;;;;;;;;;;;;;13.90;100.00;97978.66;5080685;28;19947;-70
2023/05/02 02:47:01;;;;;;;;;;;;;;;13.91;100.00;97974.91;5077083;28;19930;-70
2023/05/02 02:49:32;;;;;;;;;;;;;;;13.95;100.00;97978.63;5077098;28;19921;-70
2023/05/02 02:52:02;;;;;;;;;;;;;;;14.05;100.00;97975.03;5080174;28;19924;-71
2023/05/02 02:54:33;;;;;;;;;;;;;;;14.11;100.00;97978.50;5080972;28;19924;-70
2023/05/02 02:57:03;;;;;;;;;;;;;;;14.08;100.00;97977.16;5077990;28;20499;-71
2023/05/02 02:59:32;;;;;;;;;;;;;;;13.98;100.00;97975.38;5077184;28;19952;-70
2023/05/02 03:02:02;;;;;;;;;;;;;;;13.98;100.00;97979.94;5080202;28;19924;-71
2023/05/02 03:04:30;;;;;;;;;;;;;;;13.98;100.00;97983.44;5080466;28;19924;-70
2023/05/02 03:06:57;;;;;;;;;;;;;;;13.94;100.00;97985.06;5069578;28;20666;-70
2023/05/02 03:09:24;;;;;;;;;;;;;;;13.77;100.00;97982.00;5077221;28;19984;-71
2023/05/02 03:11:52;;;;;;;;;;;;;;;13.76;100.00;97987.66;5078741;28;20047;-71
2023/05/02 03:14:18;;;;;;;;;;;;;;;13.78;100.00;97991.66;5079182;28;19986;-70
2023/05/02 03:16:45;;;;;;;;;;;;;;;13.80;100.00;97986.03;5078124;28;19955;-71
2023/05/02 03:19:11;;;;;;;;;;;;;;;13.80;100.00;97989.47;5075707;28;20556;-71
2023/05/02 03:21:38;;;;;;;;;;;;;;;13.79;100.00;97997.84;5076852;28;20001;-70
2023/05/02 03:24:04;;;;;;;;;;;;;;;13.71;100.00;97993.06;5078966;28;19925;-71
2023/05/02 03:26:31;;;;;;;;;;;;;;;13.70;100.00;97989.59;5080207;28;19935;-70
2023/05/02 03:28:58;;;;;;;;;;;;;;;13.68;100.00;97994.41;5076213;28;19940;-71
2023/05/02 03:31:25;;;;;;;;;;;;;;;13.58;100.00;97994.50;5079536;28;20378;-71
2023/05/02 03:33:51;;;;;;;;;;;;;;;13.55;100.00;97995.06;5081243;28;19940;-70
2023/05/02 03:36:18;;;;;;;;;;;;;;;13.53;100.00;97998.03;5078364;28;19992;-70
2023/05/02 03:38:44;;;;;;;;;;;;;;;13.67;100.00;97990.16;5080450;28;19980;-70
2023/05/02 03:41:11;;;;;;;;;;;;;;;13.66;100.00;97988.53;5079480;28;19925;-70
2023/05/02 03:43:37;;;;;;;;;;;;;;;13.73;100.00;97993.59;5080559;28;19920;-71
2023/05/02 03:46:06;;;;;;;;;;;;;;;13.65;100.00;97994.19;5082897;28;19927;-71
2023/05/02 03:48:33;;;;;;;;;;;;;;;13.61;100.00;98004.69;5084088;28;19987;-70
2023/05/02 03:50:59;;;;;;;;;;;;;;;13.62;100.00;98000.09;5080922;28;19963;-70
2023/05/02 03:53:26;;;;;;;;;;;;;;;13.64;100.00;97998.75;5080543;28;19938;-70
2023/05/02 03:55:52;;;;;;;;;;;;;;;13.63;100.00;98009.75;5082387;28;20437;-71
2023/05/02 03:58:18;;;;;;;;;;;;;;;13.67;100.00;98011.63;5083744;28;19925;-70
2023/05/02 04:00:45;;;;;;;;;;;;;;;13.67;100.00;98021.53;5082382;28;19925;-70
2023/05/02 04:03:13;;;;;;;;;;;;;;;13.50;100.00;98011.19;5079948;28;19951;-70
2023/05/02 04:05:39;;;;;;;;;;;;;;;12.99;100.00;98024.06;5078822;28;19955;-70
2023/05/02 04:08:06;;;;;;;;;;;;;;;12.88;100.00;98026.00;5083147;28;19935;-70
2023/05/02 04:10:32;;;;;;;;;;;;;;;13.07;100.00;98028.03;5083883;28;19929;-71
2023/05/02 04:13:01;;;;;;;;;;;;;;;13.27;100.00;98027.97;5080562;28;20019;-69
2023/05/02 04:15:28;;;;;;;;;;;;;;;13.28;100.00;98029.56;5080138;28;19925;-70
2023/05/02 04:17:54;;;;;;;;;;;;;;;12.95;100.00;98028.38;5082080;28;19925;-71
2023/05/02 04:20:22;;;;;;;;;;;;;;;13.09;100.00;98032.06;5083154;28;19963;-70
2023/05/02 04:22:49;;;;;;;;;;;;;;;13.22;100.00;98036.03;5081469;28;19952;-71
2023/05/02 04:25:15;;;;;;;;;;;;;;;13.41;100.00;98045.06;5079492;28;19925;-70
2023/05/02 04:27:42;;;;;;;;;;;;;;;13.18;100.00;98043.84;5080402;28;19932;-70
2023/05/02 04:30:09;;;;;;;;;;;;;;;12.81;100.00;98051.50;5083004;28;19925;-70
2023/05/02 04:32:35;;;;;;;;;;;;;;;12.80;100.00;98047.19;5082762;28;19986;-70
2023/05/02 04:35:01;;;;;;;;;;;;;;;13.03;100.00;98053.81;5079433;28;19925;-70
2023/05/02 04:37:29;;;;;;;;;;;;;;;12.98;100.00;98055.44;5071248;28;19924;-70
2023/05/02 04:39:55;;;;;;;;;;;;;;;12.68;100.00;98047.50;5081942;28;19924;-70
2023/05/02 04:42:22;;;;;;;;;;;;;;;12.40;100.00;98061.50;5082481;28;19924;-70
2023/05/02 04:44:48;;;;;;;;;;;;;;;12.30;100.00;98066.88;5081375;28;20228;-70
2023/05/02 04:47:15;;;;;;;;;;;;;;;12.09;100.00;98066.09;5079069;28;19960;-70
2023/05/02 04:49:41;;;;;;;;;;;;;;;12.26;100.00;98066.59;5079805;28;19936;-71
2023/05/02 04:52:08;;;;;;;;;;;;;;;12.20;100.00;98077.59;5082717;28;19946;-71
2023/05/02 04:54:36;;;;;;;;;;;;;;;12.53;100.00;98071.66;5081438;28;20019;-71
2023/05/02 04:57:05;;;;;;;;;;;;;;;12.41;100.00;98079.16;5079002;28;19925;-71
2023/05/02 04:59:32;;;;;;;;;;;;;;;12.42;100.00;98091.50;5079343;28;19920;-72
2023/05/02 05:01:58;;;;;;;;;;;;;;;12.45;100.00;98090.97;5081965;28;19946;-71
2023/05/02 05:04:24;;;;;;;;;;;;;;;12.74;100.00;98083.94;5081512;28;19924;-71
2023/05/02 05:06:51;;;;;;;;;;;;;;;12.82;100.00;98083.38;5072585;28;20024;-71
2023/05/02 05:09:17;;;;;;;;;;;;;;;12.75;100.00;98082.84;5079162;28;19925;-71
2023/05/02 05:11:45;;;;;;;;;;;;;;;12.84;100.00;98094.59;5078552;28;19993;-71
2023/05/02 05:14:11;;;;;;;;;;;;;;;12.98;100.00;98100.22;5082328;28;19921;-71
2023/05/02 05:16:38;;;;;;;;;;;;;;;13.04;100.00;98104.47;5082235;28;19924;-71
2023/05/02 05:19:04;;;;;;;;;;;;;;;13.13;100.00;98096.69;5079003;28;19925;-71
2023/05/02 05:21:31;;;;;;;;;;;;;;;13.20;100.00;98099.88;5079298;28;19932;-71
2023/05/02 05:23:57;;;;;;;;;;;;;;;13.22;100.00;98105.75;5081608;28;19925;-70
2023/05/02 05:26:24;;;;;;;;;;;;;;;13.08;100.00;98100.22;5082082;28;20001;-71
2023/05/02 05:28:51;;;;;;;;;;;;;;;13.06;100.00;98101.53;5079040;28;19942;-71
2023/05/02 05:31:18;;;;;;;;;;;;;;;13.18;100.00;98104.72;5076844;28;20014;-71
2023/05/02 05:33:44;;;;;;;;;;;;;;;13.31;100.00;98101.44;5079314;28;19920;-71
2023/05/02 05:36:12;;;;;;;;;;;;;;;13.40;100.00;98097.91;5077157;28;20585;-71
2023/05/02 05:38:38;;;;;;;;;;;;;;;13.36;100.00;98112.16;5077231;28;19963;-71
2023/05/02 05:41:06;;;;;;;;;;;;;;;13.36;100.00;98114.84;5078400;28;19947;-71
2023/05/02 05:43:33;;;;;;;;;;;;;;;13.44;100.00;98111.56;5077153;28;19924;-71
2023/05/02 05:46:01;;;;;;;;;;;;;;;13.52;100.00;98108.31;5081162;28;20008;-71
2023/05/02 05:48:28;;;;;;;;;;;;;;;13.64;100.00;98119.53;5080421;28;19924;-71
2023/05/02 05:50:54;;;;;;;;;;;;;;;13.41;100.00;98125.53;5079108;28;19926;-71
2023/05/02 05:53:21;;;;;;;;;;;;;;;12.97;100.00;98125.41;5077384;28;19925;-71
2023/05/02 05:55:47;;;;;;;;;;;;;;;12.88;100.00;98132.41;5079469;28;19925;-70
2023/05/02 05:58:14;;;;;;;;;;;;;;;13.07;100.00;98120.00;5081490;28;19938;-70
2023/05/02 06:00:41;;;;;;;;;;;;;;;13.30;100.00;98122.09;5081276;28;19924;-69
2023/05/02 06:03:08;;;;;;;;;;;;;;;13.50;100.00;98135.41;5078030;28;19931;-70
2023/05/02 06:05:35;;;;;;;;;;;;;;;13.43;100.00;98140.28;5077929;28;19939;-71
2023/05/02 06:08:01;;;;;;;;;;;;;;;13.27;100.00;98137.94;5072938;28;19932;-71
2023/05/02 06:10:28;;;;;;;;;;;;;;;13.33;100.00;98139.53;5080019;28;19924;-71
2023/05/02 06:12:54;;;;;;;;;;;;;;;13.31;100.00;98136.31;5079020;28;19931;-72
2023/05/02 06:15:20;;;;;;;;;;;;;;;13.39;100.00;98143.78;5077800;28;20028;-71
2023/05/02 06:17:47;;;;;;;;;;;;;;;13.40;100.00;98146.19;5078990;28;19932;-71
2023/05/02 06:20:14;;;;;;;;;;;;;;;13.67;100.00;98143.13;5079946;28;19934;-71
2023/05/02 06:22:41;;;;;;;;;;;;;;;13.80;100.00;98139.81;5080715;28;19935;-71
2023/05/02 06:25:08;;;;;;;;;;;;;;;13.81;100.00;98141.41;5077564;28;19967;-71
2023/05/02 06:27:34;;;;;;;;;;;;;;;13.24;100.00;98146.53;5076296;28;19925;-71
2023/05/02 06:30:01;;;;;;;;;;;;;;;13.25;100.00;98143.56;5080370;28;19996;-71
2023/05/02 06:32:29;;;;;;;;;;;;;;;13.57;100.00;98153.91;5081092;28;19948;-71
2023/05/02 06:34:56;;;;;;;;;;;;;;;13.53;100.00;98152.84;5078312;28;19963;-71
2023/05/02 06:37:23;;;;;;;;;;;;;;;13.70;100.00;98156.00;5070807;28;20023;-71
2023/05/02 06:39:50;;;;;;;;;;;;;;;13.93;100.00;98160.66;5078861;28;19984;-71
2023/05/02 06:42:16;;;;;;;;;;;;;;;13.89;100.00;98164.19;5080707;28;19925;-71
2023/05/02 06:44:42;;;;;;;;;;;;;;;14.08;100.00;98163.25;5080029;28;20022;-71
2023/05/02 06:47:09;;;;;;;;;;;;;;;14.03;100.00;98165.97;5077122;28;19960;-70
2023/05/02 06:49:35;;;;;;;;;;;;;;;14.20;100.00;98162.91;5077162;28;19925;-71
2023/05/02 06:52:01;;;;;;;;;;;;;;;14.21;100.00;98171.75;5080591;28;19970;-71
2023/05/02 06:54:29;;;;;;;;;;;;;;;13.63;100.00;98181.50;5080640;28;19933;-71
2023/05/02 06:56:55;;;;;;;;;;;;;;;13.92;100.00;98180.56;5078074;28;19971;-71
2023/05/02 06:59:22;;;;;;;;;;;;;;;13.62;100.00;98191.44;5077060;28;20027;-71
2023/05/02 07:01:48;;;;;;;;;;;;;;;13.40;100.00;98191.00;5078885;28;19925;-71
2023/05/02 07:04:15;;;;;;;;;;;;;;;13.26;100.00;98190.78;5081592;28;20012;-71
2023/05/02 07:06:41;;;;;;;;;;;;;;;13.38;100.00;98187.78;5075604;28;20011;-71
2023/05/02 07:09:07;;;;;;;;;;;;;;;13.39;100.00;98192.09;5081264;28;19947;-71
2023/05/02 07:11:35;;;;;;;;;;;;;;;13.50;100.00;98194.44;5081325;28;19929;-71
2023/05/02 07:14:01;;;;;;;;;;;;;;;13.70;100.00;98196.25;5084773;28;19978;-71
2023/05/02 07:16:28;;;;;;;;;;;;;;;13.74;100.00;98199.97;5084630;28;19956;-71
2023/05/02 07:18:54;;;;;;;;;;;;;;;13.68;100.00;98197.59;5082095;28;19956;-71
2023/05/02 07:21:20;;;;;;;;;;;;;;;13.66;100.00;98205.13;5079895;28;19984;-71
2023/05/02 07:23:47;;;;;;;;;;;;;;;13.53;100.00;98201.13;5082241;28;19956;-71
2023/05/02 07:26:13;;;;;;;;;;;;;;;13.71;100.00;98211.25;5083000;28;19925;-71
2023/05/02 07:28:41;;;;;;;;;;;;;;;13.50;100.00;98210.53;5083953;28;20489;-71
2023/05/02 07:31:07;;;;;;;;;;;;;;;13.78;100.00;98206.41;5080745;28;19927;-71
2023/05/02 07:33:33;;;;;;;;;;;;;;;13.78;100.00;98211.75;5080862;28;20073;-71
2023/05/02 07:36:01;;;;;;;;;;;;;;;13.87;100.00;98215.47;5079738;28;19936;-71
2023/05/02 07:38:27;;;;;;;;;;;;;;;14.02;100.00;98217.25;5079350;28;19924;-71
2023/05/02 07:40:57;;;;;;;;;;;;;;;14.13;100.00;98209.97;5081804;28;19983;-71
2023/05/02 07:43:23;;;;;;;;;;;;;;;14.35;100.00;98211.19;5080391;28;19924;-71
2023/05/02 07:45:51;;;;;;;;;;;;;;;14.47;100.00;98221.59;5081666;28;19925;-71
2023/05/02 07:48:19;;;;;;;;;;;;;;;14.49;100.00;98216.72;5082315;28;19924;-71
2023/05/02 07:50:45;;;;;;;;;;;;;;;14.65;100.00;98215.53;5081123;28;19925;-71
2023/05/02 07:53:11;;;;;;;;;;;;;;;14.74;100.00;98216.53;5079885;28;19977;-71
2023/05/02 07:55:38;;;;;;;;;;;;;;;14.35;100.00;98215.75;5079829;28;20035;-71
2023/05/02 07:58:04;;;;;;;;;;;;;;;14.30;100.00;98221.94;5082062;28;19935;-71
2023/05/02 08:00:30;;;;;;;;;;;;;;;14.51;100.00;98228.78;5083709;28;19971;-71
2023/05/02 08:02:58;;;;;;;;;;;;;;;14.23;100.00;98242.94;5080840;28;19936;-71
2023/05/02 08:05:25;;;;;;;;;;;;;;;14.47;100.00;98232.34;5079901;28;19992;-71
2023/05/02 08:07:51;;;;;;;;;;;;;;;14.64;100.00;98221.97;5079059;28;19970;-71
2023/05/02 08:10:18;;;;;;;;;;;;;;;14.88;100.00;98230.94;5083257;28;19996;-71
2023/05/02 08:12:44;;;;;;;;;;;;;;;14.90;100.00;98241.38;5082451;28;19964;-71
2023/05/02 08:15:11;;;;;;;;;;;;;;;14.84;100.00;98231.75;5079718;28;19952;-72
2023/05/02 08:17:38;;;;;;;;;;;;;;;14.72;100.00;98237.50;5077835;28;19988;-72
2023/05/02 08:20:06;;;;;;;;;;;;;;;14.87;100.00;98234.69;5083401;28;19932;-72
2023/05/02 08:22:33;;;;;;;;;;;;;;;14.78;100.00;98233.69;5083036;28;19991;-71
2023/05/02 08:24:59;;;;;;;;;;;;;;;14.65;100.00;98228.97;5078933;28;19925;-71
2023/05/02 08:27:25;;;;;;;;;;;;;;;14.79;100.00;98237.19;5079680;28;19952;-71
2023/05/02 08:29:52;;;;;;;;;;;;;;;14.87;100.00;98240.06;5081543;28;19991;-71
2023/05/02 08:32:18;;;;;;;;;;;;;;;14.93;100.00;98238.13;5083017;28;20027;-71
2023/05/02 08:34:44;;;;;;;;;;;;;;;14.81;100.00;98238.50;5081889;28;20003;-71
2023/05/02 08:37:12;;;;;;;;;;;;;;;15.11;100.00;98243.59;5070998;28;19929;-71
2023/05/02 08:39:39;;;;;;;;;;;;;;;14.95;100.00;98250.22;5079387;28;19955;-71
2023/05/02 08:42:06;;;;;;;;;;;;;;;15.02;100.00;98248.00;5082656;28;19934;-71
2023/05/02 08:44:32;;;;;;;;;;;;;;;14.77;100.00;98250.91;5082567;28;19925;-70
2023/05/02 08:46:59;;;;;;;;;;;;;;;14.92;100.00;98253.47;5079669;28;19968;-71
2023/05/02 08:49:27;;;;;;;;;;;;;;;15.17;100.00;98262.38;5079125;28;19976;-71
2023/05/02 08:51:55;;;;;;;;;;;;;;;14.79;100.00;98259.47;5081421;28;20016;-72
2023/05/02 08:54:24;;;;;;;;;;;;;;;15.09;100.00;98261.13;5082577;28;20004;-72
2023/05/02 08:56:51;;;;;;;;;;;;;;;14.57;100.00;98268.00;5080778;28;19924;-72
2023/05/02 08:59:17;;;;;;;;;;;;;;;14.66;100.00;98262.84;5079106;28;19921;-72
2023/05/02 09:01:45;;;;;;;;;;;;;;;15.00;100.00;98271.69;5079910;28;19952;-72
2023/05/02 09:04:11;;;;;;;;;;;;;;;15.17;100.00;98275.84;5082591;28;19959;-72
2023/05/02 09:06:38;;;;;;;;;;;;;;;15.04;100.00;98271.94;5072599;28;19925;-72
2023/05/02 09:09:04;;;;;;;;;;;;;;;15.20;100.00;98270.69;5074297;28;19958;-72
2023/05/02 09:11:32;;;;;;;;;;;;;;;15.16;100.00;98276.94;5082249;28;19924;-72
2023/05/02 09:14:02;;;;;;;;;;;;;;;15.17;100.00;98281.22;5079729;28;19929;-72
2023/05/02 09:16:29;;;;;;;;;;;;;;;15.20;100.00;98278.75;5079311;28;19921;-71
2023/05/02 09:18:57;;;;;;;;;;;;;;;15.24;100.00;98289.75;5081373;28;19975;-71
2023/05/02 09:21:24;;;;;;;;;;;;;;;15.35;100.00;98291.28;5082391;28;19932;-71
2023/05/02 09:23:52;;;;;;;;;;;;;;;15.43;100.00;98296.03;5080629;28;19924;-71
2023/05/02 09:26:19;;;;;;;;;;;;;;;15.28;100.00;98293.50;5079172;28;19984;-71
2023/05/02 09:28:47;;;;;;;;;;;;;;;15.37;100.00;98297.19;5078567;28;19932;-71
2023/05/02 09:31:15;;;;;;;;;;;;;;;15.34;100.00;98303.94;5082210;28;19939;-71
2023/05/02 09:33:42;;;;;;;;;;;;;;;15.09;100.00;98302.28;5081388;28;19921;-71
2023/05/02 09:36:09;;;;;;;;;;;;;;;15.02;100.00;98299.09;5071473;28;19924;-71
2023/05/02 09:38:35;;;;;;;;;;;;;;;15.19;100.00;98290.63;5085824;28;19984;-71
2023/05/02 09:41:03;;;;;;;;;;;;;;;15.31;100.00;98301.81;5078609;28;20271;-71
2023/05/02 09:43:29;;;;;;;;;;;;;;;15.49;100.00;98303.00;5078770;28;19933;-71
2023/05/02 09:45:58;;;;;;;;;;;;;;;15.69;100.00;98304.69;5081264;28;19932;-71
2023/05/02 09:48:26;;;;;;;;;;;;;;;15.41;100.00;98309.00;5082052;28;20435;-71
2023/05/02 09:50:53;;;;;;;;;;;;;;;15.35;100.00;98302.06;5078451;28;19947;-72
2023/05/02 09:53:19;;;;;;;;;;;;;;;15.66;100.00;98304.16;5077210;28;19924;-71
2023/05/02 09:55:46;;;;;;;;;;;;;;;15.84;100.00;98308.03;5079054;28;19931;-71
2023/05/02 09:58:22;;;;;;;;;;;;;;;15.87;100.00;98307.44;5081387;28;19996;-71
2023/05/02 10:00:49;;;;;;;;;;;;;;;15.86;100.00;98311.22;5080247;28;19928;-71
2023/05/02 10:03:18;;;;;;;;;;;;;;;15.77;100.00;98312.94;5078060;28;19948;-70
2023/05/02 10:05:45;;;;;;;;;;;;;;;15.62;100.00;98315.81;5078060;28;19975;-71
2023/05/02 10:08:13;;;;;;;;;;;;;;;15.51;100.00;98309.72;5073456;28;19927;-71
2023/05/02 10:10:40;;;;;;;;;;;;;;;15.50;100.00;98310.00;5081673;28;20508;-72
2023/05/02 10:13:08;;;;;;;;;;;;;;;15.06;100.00;98312.81;5078176;28;20038;-71
2023/05/02 10:15:37;;;;;;;;;;;;;;;15.54;100.00;98313.72;5077968;28;20626;-71
2023/05/02 10:18:07;;;;;;;;;;;;;;;15.70;100.00;98317.06;5081549;28;19924;-71
2023/05/02 10:20:37;;;;;;;;;;;;;;;15.52;100.00;98316.69;5081054;28;19925;-70
2023/05/02 10:23:04;;;;;;;;;;;;;;;15.47;100.00;98313.25;5077888;28;19925;-71
2023/05/02 10:25:33;;;;;;;;;;;;;;;15.44;100.00;98321.88;5077603;28;19964;-71
2023/05/02 10:27:59;;;;;;;;;;;;;;;15.50;100.00;98313.50;5080683;28;20111;-70
2023/05/02 10:30:26;;;;;;;;;;;;;;;15.43;100.00;98315.69;5081128;28;19924;-71
2023/05/02 10:32:53;;;;;;;;;;;;;;;15.59;100.00;98317.19;5077801;28;19925;-71
2023/05/02 10:35:20;;;;;;;;;;;;;;;15.63;100.00;98309.31;5077332;28;19921;-70
2023/05/02 10:37:48;;;;;;;;;;;;;;;15.61;100.00;98323.06;5075305;28;19955;-72
2023/05/02 10:40:15;;;;;;;;;;;;;;;15.51;100.00;98319.66;5079390;28;19935;-71
2023/05/02 10:42:43;;;;;;;;;;;;;;;15.57;100.00;98316.66;5080584;28;20555;-71
2023/05/02 10:45:11;;;;;;;;;;;;;;;15.74;100.00;98318.91;5077360;28;19924;-71
2023/05/02 10:47:37;;;;;;;;;;;;;;;15.80;100.00;98312.38;5077117;28;19925;-71
2023/05/02 10:50:07;;;;;;;;;;;;;;;15.78;100.00;98311.06;5076714;28;21186;-72
2023/05/02 10:52:35;;;;;;;;;;;;;;;16.00;100.00;98314.81;5077823;28;19921;-71
2023/05/02 10:55:16;;;;;;;;;;;;;;;15.98;100.00;98314.31;5080512;28;19920;-71
2023/05/02 10:58:02;;;;;;;;;;;;;;;15.88;100.00;98309.03;5080199;28;19924;-72
2023/05/02 11:00:29;;;;;;;;;;;;;;;16.03;100.00;98303.47;5077352;28;19963;-71
2023/05/02 11:02:55;;;;;;;;;;;;;;;15.64;100.00;98308.22;5079421;28;19928;-71
2023/05/02 11:05:23;;;;;;;;;;;;;;;15.50;100.00;98307.31;5075621;28;19920;-71
2023/05/02 11:07:49;;;;;;;;;;;;;;;15.94;100.00;98307.88;5070778;28;19921;-71
2023/05/02 11:10:30;;;;;;;;;;;;;;;16.01;100.00;98307.53;5081326;28;19939;-72
2023/05/02 11:12:59;;;;;;;;;;;;;;;16.22;100.00;98300.03;5078976;28;19920;-72
2023/05/02 11:15:59;;;;;;;;;;;;;;;16.11;100.00;98296.63;5076455;28;20458;-72
2023/05/02 11:18:25;;;;;;;;;;;;;;;16.51;100.00;98306.06;5020668;28;20026;-72
2023/05/02 11:20:52;;;;;;;;;;;;;;;16.67;100.00;98304.78;5060496;28;19935;-72
2023/05/02 11:23:24;;;;;;;;;;;;;;;16.68;100.00;98301.00;5080529;28;19959;-70
2023/05/02 11:25:53;;;;;;;;;;;;;;;16.69;100.00;98299.91;5077503;28;19946;-72
2023/05/02 11:28:38;;;;;;;;;;;;;;;16.36;100.00;98301.69;5077016;28;19996;-72
2023/05/02 11:31:04;;;;;;;;;;;;;;;16.80;100.00;98287.88;5068524;28;19956;-70
2023/05/02 11:33:31;;;;;;;;;;;;;;;16.73;100.00;98290.13;5075768;28;19925;-72
2023/05/02 11:35:58;;;;;;;;;;;;;;;16.74;100.00;98283.66;5077375;28;19924;-70
2023/05/02 11:38:25;;;;;;;;;;;;;;;16.64;100.00;98291.88;5081619;28;19984;-71
2023/05/02 11:40:54;;;;;;;;;;;;;;;16.63;100.00;98290.28;5078359;28;19920;-71
2023/05/02 11:43:21;;;;;;;;;;;;;;;16.78;100.00;98284.66;5076829;28;19959;-71
2023/05/02 11:45:47;;;;;;;;;;;;;;;16.52;100.00;98291.50;5077933;28;19935;-70
2023/05/02 11:48:15;;;;;;;;;;;;;;;16.80;100.00;98282.47;5080210;28;19966;-71
2023/05/02 11:50:42;;;;;;;;;;;;;;;16.84;100.00;98272.69;5079741;28;20006;-73
2023/05/02 11:53:10;;;;;;;;;;;;;;;16.62;100.00;98281.38;5080847;28;19992;-73
2023/05/02 11:55:37;;;;;;;;;;;;;;;16.86;100.00;98273.22;5080589;28;19925;-73
2023/05/02 11:58:05;;;;;;;;;;;;;;;16.86;100.00;98278.59;5080705;28;19935;-71
2023/05/02 12:00:31;;;;;;;;;;;;;;;16.53;100.00;98282.31;5080471;28;20514;-71
2023/05/02 12:02:57;;;;;;;;;;;;;;;16.77;100.00;98282.25;5082995;28;20015;-71
2023/05/02 12:05:28;;;;;;;;;;;;;;;16.78;100.00;98278.44;5078509;28;19988;-71
2023/05/02 12:07:54;;;;;;;;;;;;;;;16.73;100.00;98290.94;5074232;28;19959;-73
2023/05/02 12:10:20;;;;;;;;;;;;;;;16.70;100.00;98277.22;5083998;28;19935;-72
2023/05/02 12:12:47;;;;;;;;;;;;;;;16.82;100.00;98277.59;5081497;28;20385;-72
2023/05/02 12:15:15;;;;;;;;;;;;;;;16.47;100.00;98286.97;5079271;28;19967;-73
2023/05/02 12:17:43;;;;;;;;;;;;;;;16.53;100.00;98271.50;5081435;28;19955;-72
2023/05/02 12:20:10;;;;;;;;;;;;;;;16.72;100.00;98269.63;5084635;28;19924;-72
2023/05/02 12:22:37;;;;;;;;;;;;;;;16.76;100.00;98262.56;5084550;28;19995;-72
2023/05/02 12:25:04;;;;;;;;;;;;;;;17.06;100.00;98275.56;5081396;28;19975;-73
2023/05/02 12:27:32;;;;;;;;;;;;;;;17.11;100.00;98270.06;5081293;28;19921;-73
2023/05/02 12:29:58;;;;;;;;;;;;;;;17.36;100.00;98273.44;5082736;28;19928;-73
2023/05/02 12:32:30;;;;;;;;;;;;;;;17.36;100.00;98268.81;5084518;28;19936;-73
2023/05/02 12:34:56;;;;;;;;;;;;;;;17.31;100.00;98260.81;5081641;28;19928;-72
2023/05/02 12:37:23;;;;;;;;;;;;;;;17.57;100.00;98269.28;5072339;28;19989;-73